createdAt,value
2018-06-19T00:00:59.859Z,20.20
2018-06-19T00:03:28.780Z,17.33
2018-06-19T00:05:57.784Z,18.07
2018-06-19T00:08:26.686Z,17.97
2018-06-19T00:10:55.694Z,20.40
2018-06-19T00:13:24.586Z,18.27
2018-06-19T00:15:53.558Z,19.17
2018-06-19T00:18:29.704Z,17.33
2018-06-19T00:21:04.511Z,17.03
2018-06-19T00:23:33.391Z,18.40
2018-06-19T00:26:02.419Z,18.43
2018-06-19T00:28:31.535Z,20.80
2018-06-19T00:31:00.490Z,17.60
2018-06-19T00:33:29.424Z,21.33
2018-06-19T00:35:58.311Z,19.50
2018-06-19T00:38:27.095Z,19.73
2018-06-19T00:40:55.952Z,24.40
2018-06-19T00:43:24.760Z,18.60
2018-06-19T00:45:53.540Z,21.00
2018-06-19T00:48:22.372Z,20.17
2018-06-19T00:50:51.208Z,16.70
2018-06-19T00:53:20.051Z,19.73
2018-06-19T00:55:48.824Z,19.03
2018-06-19T00:58:17.856Z,19.07
2018-06-19T01:00:46.603Z,17.83
2018-06-19T01:03:15.557Z,16.67
2018-06-19T01:05:44.384Z,17.17
2018-06-19T01:08:13.183Z,17.60
2018-06-19T01:10:41.957Z,21.73
2018-06-19T01:13:10.761Z,18.20
2018-06-19T01:15:39.518Z,19.80
2018-06-19T01:18:08.354Z,21.90
2018-06-19T01:20:37.106Z,18.83
2018-06-19T01:23:05.985Z,19.53
2018-06-19T01:25:34.753Z,19.80
2018-06-19T01:28:03.919Z,19.07
2018-06-19T01:30:32.757Z,25.83
2018-06-19T01:33:01.417Z,20.23
2018-06-19T01:35:30.160Z,22.87
2018-06-19T01:37:59.048Z,20.97
2018-06-19T01:40:27.840Z,20.83
2018-06-19T01:42:56.498Z,20.53
2018-06-19T01:45:31.238Z,24.37
2018-06-19T01:48:00.000Z,22.73
2018-06-19T01:50:28.807Z,22.33
2018-06-19T01:52:57.815Z,23.20
2018-06-19T01:55:26.633Z,23.00
2018-06-19T01:57:55.393Z,23.90
2018-06-19T02:00:24.191Z,24.30
2018-06-19T02:02:52.941Z,21.33
2018-06-19T02:05:21.789Z,21.07
2018-06-19T02:07:50.865Z,23.67
2018-06-19T02:10:19.659Z,22.83
2018-06-19T02:12:48.418Z,18.90
2018-06-19T02:15:17.061Z,23.13
2018-06-19T02:17:45.709Z,22.57
2018-06-19T02:20:14.323Z,25.53
2018-06-19T02:22:43.076Z,22.67
2018-06-19T02:25:11.686Z,24.47
2018-06-19T02:27:40.439Z,22.07
2018-06-19T02:30:09.607Z,21.97
2018-06-19T02:32:38.625Z,20.80
2018-06-19T02:35:07.371Z,21.73
2018-06-19T02:37:36.162Z,24.00
2018-06-19T02:40:05.044Z,24.87
2018-06-19T02:42:33.896Z,20.67
2018-06-19T02:45:02.671Z,23.53
2018-06-19T02:47:31.466Z,22.73
2018-06-19T02:50:00.244Z,22.93
2018-06-19T02:52:29.023Z,25.03
2018-06-19T02:54:57.824Z,27.00
2018-06-19T02:57:26.609Z,20.97
2018-06-19T02:59:55.351Z,24.97
2018-06-19T03:02:24.150Z,22.50
2018-06-19T03:04:52.896Z,22.87
2018-06-19T03:07:21.737Z,18.43
2018-06-19T03:09:50.497Z,19.50
2018-06-19T03:12:19.125Z,18.73
2018-06-19T03:14:48.128Z,20.23
2018-06-19T03:17:16.930Z,19.17
2018-06-19T03:19:45.743Z,20.80
2018-06-19T03:22:14.527Z,17.93
2018-06-19T03:24:43.264Z,23.40
2018-06-19T03:27:12.080Z,17.07
2018-06-19T03:29:40.847Z,21.23
2018-06-19T03:32:09.689Z,16.13
2018-06-19T03:34:38.684Z,15.77
2018-06-19T03:37:07.477Z,13.93
2018-06-19T03:39:36.264Z,16.93
2018-06-19T03:42:05.162Z,17.17
2018-06-19T03:44:34.024Z,17.07
2018-06-19T03:47:02.771Z,16.40
2018-06-19T03:49:31.560Z,14.57
2018-06-19T03:52:00.417Z,15.20
2018-06-19T03:54:29.257Z,13.93
2018-06-19T03:56:58.112Z,17.17
2018-06-19T03:59:26.738Z,14.50
2018-06-19T04:01:55.479Z,15.17
2018-06-19T04:04:24.572Z,13.33
2018-06-19T04:06:53.321Z,13.73
2018-06-19T04:09:21.999Z,19.03
2018-06-19T04:11:51.076Z,12.90
2018-06-19T04:14:19.865Z,16.27
2018-06-19T04:16:48.603Z,13.00
2018-06-19T04:19:17.382Z,11.63
2018-06-19T04:21:46.007Z,14.20
2018-06-19T04:24:14.629Z,13.27
2018-06-19T04:26:43.368Z,15.13
2018-06-19T04:29:12.152Z,11.93
2018-06-19T04:31:40.909Z,11.70
2018-06-19T04:34:09.832Z,12.33
2018-06-19T04:36:38.599Z,15.30
2018-06-19T04:39:10.725Z,14.13
2018-06-19T04:41:39.310Z,15.20
2018-06-19T04:44:08.341Z,11.17
2018-06-19T04:46:36.991Z,11.73
2018-06-19T04:49:05.597Z,11.17
2018-06-19T04:51:34.370Z,10.77
2018-06-19T04:54:03.172Z,15.53
2018-06-19T04:56:31.966Z,12.17
2018-06-19T04:59:00.790Z,12.77
2018-06-19T05:01:29.580Z,17.57
2018-06-19T05:03:58.328Z,14.37
2018-06-19T05:06:27.121Z,12.67
2018-06-19T05:08:55.899Z,11.87
2018-06-19T05:11:24.941Z,14.43
2018-06-19T05:13:53.709Z,13.27
2018-06-19T05:16:22.790Z,12.37
2018-06-19T05:18:51.562Z,14.33
2018-06-19T05:21:20.174Z,14.77
2018-06-19T05:23:48.813Z,15.50
2018-06-19T05:26:17.887Z,12.20
2018-06-19T05:28:46.641Z,16.33
2018-06-19T05:31:15.422Z,11.90
2018-06-19T05:33:44.152Z,14.00
2018-06-19T05:36:12.997Z,13.00
2018-06-19T05:38:41.605Z,13.57
2018-06-19T05:41:10.498Z,13.20
2018-06-19T05:43:39.235Z,13.87
2018-06-19T05:46:08.028Z,13.57
2018-06-19T05:48:36.849Z,13.53
2018-06-19T05:51:05.615Z,11.20
2018-06-19T05:53:34.239Z,14.30
2018-06-19T05:56:03.083Z,14.77
2018-06-19T05:58:31.914Z,11.13
2018-06-19T06:01:00.725Z,12.47
2018-06-19T06:03:29.681Z,11.80
2018-06-19T06:05:58.500Z,13.57
2018-06-19T06:08:27.320Z,14.07
2018-06-19T06:10:56.079Z,12.13
2018-06-19T06:13:24.995Z,11.27
2018-06-19T06:15:53.745Z,15.77
2018-06-19T06:18:22.668Z,14.03
2018-06-19T06:20:51.433Z,15.70
2018-06-19T06:23:20.221Z,12.87
2018-06-19T06:25:49.077Z,11.80
2018-06-19T06:28:17.875Z,15.23
2018-06-19T06:30:46.630Z,11.60
2018-06-19T06:33:15.429Z,14.70
2018-06-19T06:35:44.471Z,16.50
2018-06-19T06:38:13.336Z,14.67
2018-06-19T06:40:41.969Z,16.33
2018-06-19T06:43:10.719Z,12.10
2018-06-19T06:45:45.618Z,15.97
2018-06-19T06:48:14.439Z,13.10
2018-06-19T06:50:43.232Z,13.80
2018-06-19T06:53:12.175Z,11.80
2018-06-19T06:55:40.973Z,18.00
2018-06-19T06:58:09.732Z,10.63
2018-06-19T07:00:38.639Z,15.20
2018-06-19T07:03:07.388Z,11.50
2018-06-19T07:05:36.189Z,14.97
2018-06-19T07:08:04.970Z,13.30
2018-06-19T07:10:33.757Z,16.10
2018-06-19T07:13:02.589Z,15.23
2018-06-19T07:15:31.447Z,16.50
2018-06-19T07:18:00.165Z,11.73
2018-06-19T07:20:28.964Z,14.83
2018-06-19T07:22:57.791Z,15.10
2018-06-19T07:25:26.647Z,18.90
2018-06-19T07:27:55.403Z,10.90
2018-06-19T07:30:24.193Z,13.73
2018-06-19T07:32:52.944Z,15.33
2018-06-19T07:35:21.741Z,14.40
2018-06-19T07:37:50.697Z,11.60
2018-06-19T07:40:19.504Z,16.33
2018-06-19T07:42:48.364Z,12.20
2018-06-19T07:45:17.106Z,16.70
2018-06-19T07:47:45.908Z,15.27
2018-06-19T07:50:14.725Z,18.53
2018-06-19T07:52:43.540Z,24.53
2018-06-19T07:55:12.397Z,16.77
2018-06-19T07:57:41.256Z,16.47
2018-06-19T08:00:10.083Z,12.87
2018-06-19T08:02:38.940Z,16.73
2018-06-19T08:05:07.996Z,20.13
2018-06-19T08:07:36.799Z,14.93
2018-06-19T08:10:05.580Z,12.03
2018-06-19T08:12:34.372Z,13.93
2018-06-19T08:15:03.217Z,16.50
2018-06-19T08:17:32.008Z,12.93
2018-06-19T08:20:00.668Z,9.27
2018-06-19T08:22:29.459Z,12.77
2018-06-19T08:24:58.209Z,13.13
2018-06-19T08:27:27.075Z,13.00
2018-06-19T08:29:55.822Z,12.40
2018-06-19T08:32:24.642Z,12.57
2018-06-19T08:34:53.222Z,11.23
2018-06-19T08:37:21.811Z,14.57
2018-06-19T08:39:50.724Z,11.97
2018-06-19T08:42:19.505Z,12.13
2018-06-19T08:44:48.305Z,13.70
2018-06-19T08:47:17.074Z,12.70
2018-06-19T08:49:45.884Z,11.30
2018-06-19T08:52:14.767Z,14.10
2018-06-19T08:54:43.576Z,11.93
2018-06-19T08:57:12.399Z,12.80
2018-06-19T08:59:41.233Z,12.33
2018-06-19T09:02:10.037Z,15.07
2018-06-19T09:04:38.944Z,15.97
2018-06-19T09:07:08.055Z,18.50
2018-06-19T09:09:36.860Z,15.80
2018-06-19T09:12:05.752Z,29.00
2018-06-19T09:14:34.709Z,24.63
2018-06-19T09:17:03.834Z,19.13
2018-06-19T09:19:32.664Z,16.23
2018-06-19T09:22:01.432Z,15.57
2018-06-19T09:24:30.426Z,18.63
2018-06-19T09:26:59.205Z,15.57
2018-06-19T09:29:28.038Z,15.27
2018-06-19T09:31:56.673Z,14.90
2018-06-19T09:34:25.568Z,13.57
2018-06-19T09:36:54.452Z,17.67
2018-06-19T09:39:23.303Z,15.90
2018-06-19T09:41:52.223Z,23.03
2018-06-19T09:44:21.008Z,16.80
2018-06-19T09:46:49.800Z,15.93
2018-06-19T09:49:18.560Z,15.30
2018-06-19T09:51:47.566Z,19.77
2018-06-19T09:54:16.302Z,16.70
2018-06-19T09:56:45.192Z,17.83
2018-06-19T09:59:14.016Z,15.57
2018-06-19T10:01:43.043Z,17.03
2018-06-19T10:04:11.872Z,19.97
2018-06-19T10:06:40.842Z,16.73
2018-06-19T10:09:10.170Z,23.83
2018-06-19T10:11:39.048Z,17.40
2018-06-19T10:14:07.880Z,17.10
2018-06-19T10:16:36.763Z,19.93
2018-06-19T10:19:05.645Z,18.30
2018-06-19T10:21:34.459Z,18.17
2018-06-19T10:24:03.315Z,22.57
2018-06-19T10:26:32.168Z,18.17
2018-06-19T10:29:00.981Z,16.70
2018-06-19T10:31:29.862Z,19.27
2018-06-19T10:33:58.632Z,15.23
2018-06-19T10:36:27.424Z,15.30
2018-06-19T10:38:56.269Z,12.80
2018-06-19T10:41:25.050Z,13.90
2018-06-19T10:43:54.251Z,13.03
2018-06-19T10:46:23.073Z,11.37
2018-06-19T10:48:51.849Z,15.50
2018-06-19T10:51:20.638Z,13.93
2018-06-19T10:53:49.528Z,12.90
2018-06-19T10:56:18.343Z,16.27
2018-06-19T10:58:47.148Z,15.73
2018-06-19T11:01:15.895Z,16.13
2018-06-19T11:03:44.749Z,19.47
2018-06-19T11:06:13.494Z,20.00
2018-06-19T11:08:42.395Z,21.17
2018-06-19T11:11:11.001Z,19.30
2018-06-19T11:13:39.794Z,22.10
2018-06-19T11:16:08.528Z,19.70
2018-06-19T11:18:37.333Z,20.27
2018-06-19T11:21:06.805Z,27.13
2018-06-19T11:23:35.591Z,21.37
2018-06-19T11:26:04.420Z,23.20
2018-06-19T11:28:33.487Z,24.90
2018-06-19T11:31:02.276Z,24.00
2018-06-19T11:33:31.080Z,24.27
2018-06-19T11:35:59.851Z,22.03
2018-06-19T11:38:28.631Z,20.63
2018-06-19T11:40:57.512Z,19.33
2018-06-19T11:43:26.301Z,21.10
2018-06-19T11:45:59.075Z,19.23
2018-06-19T11:48:27.869Z,19.77
2018-06-19T11:50:56.668Z,20.37
2018-06-19T11:53:25.696Z,19.10
2018-06-19T11:55:54.731Z,22.10
2018-06-19T11:58:23.584Z,21.23
2018-06-19T12:00:53.347Z,17.60
2018-06-19T12:03:22.130Z,17.37
2018-06-19T12:05:50.897Z,18.00
2018-06-19T12:08:19.664Z,14.57
2018-06-19T12:10:48.629Z,12.33
2018-06-19T12:13:17.433Z,18.57
2018-06-19T12:15:46.212Z,17.13
2018-06-19T12:18:14.976Z,17.27
2018-06-19T12:20:43.841Z,19.80
2018-06-19T12:23:12.681Z,19.80
2018-06-19T12:25:41.428Z,19.70
2018-06-19T12:28:10.061Z,22.00
2018-06-19T12:30:38.808Z,21.17
2018-06-19T12:33:07.620Z,21.57
2018-06-19T12:35:36.417Z,18.33
2018-06-19T12:38:05.375Z,21.47
2018-06-19T12:40:34.005Z,21.50
2018-06-19T12:43:02.872Z,15.50
2018-06-19T12:45:37.505Z,12.73
2018-06-19T12:48:06.445Z,13.93
2018-06-19T12:51:52.548Z,14.17
2018-06-19T12:55:22.448Z,13.70
2018-06-19T12:57:51.623Z,10.50
2018-06-19T13:00:20.466Z,13.97
2018-06-19T13:03:06.181Z,13.23
2018-06-19T13:05:45.924Z,12.50
2018-06-19T13:08:14.551Z,10.47
2018-06-19T13:10:43.218Z,10.47
2018-06-19T13:13:30.940Z,11.63
2018-06-19T13:15:59.743Z,10.17
2018-06-19T13:18:45.185Z,11.17
2018-06-19T13:21:14.073Z,10.13
2018-06-19T13:23:42.883Z,12.00
2018-06-19T13:26:11.645Z,12.40
2018-06-19T13:30:00.260Z,12.47
2018-06-19T13:32:29.361Z,10.37
2018-06-19T13:34:58.188Z,11.17
2018-06-19T13:37:26.972Z,10.90
2018-06-19T13:41:18.658Z,11.43
2018-06-19T13:44:06.055Z,11.33
2018-06-19T13:46:34.874Z,13.67
2018-06-19T13:49:03.508Z,12.03
2018-06-19T13:51:32.307Z,8.67
2018-06-19T13:54:01.099Z,7.83
2018-06-19T13:57:49.404Z,7.37
2018-06-19T14:00:20.401Z,5.13
2018-06-19T14:02:49.432Z,7.07
2018-06-19T14:05:19.313Z,5.20
2018-06-19T14:08:05.907Z,5.80
2018-06-19T14:11:54.848Z,6.53
2018-06-19T14:14:23.648Z,4.70
2018-06-19T14:16:52.618Z,6.03
2018-06-19T14:19:21.437Z,6.70
2018-06-19T14:21:50.190Z,4.87
2018-06-19T14:24:18.974Z,3.43
2018-06-19T14:26:47.822Z,3.90
2018-06-19T14:29:16.667Z,4.47
2018-06-19T14:31:45.411Z,3.40
2018-06-19T14:34:14.243Z,4.10
2018-06-19T14:36:42.964Z,5.10
2018-06-19T14:39:11.827Z,3.27
2018-06-19T14:41:40.679Z,4.00
2018-06-19T14:44:09.463Z,4.20
2018-06-19T14:46:38.207Z,2.80
2018-06-19T14:49:07.000Z,3.50
2018-06-19T14:51:35.978Z,3.47
2018-06-19T14:54:04.920Z,3.90
2018-06-19T14:56:33.662Z,2.73
2018-06-19T14:59:02.471Z,3.80
2018-06-19T15:01:31.207Z,3.30
2018-06-19T15:03:59.987Z,2.67
2018-06-19T15:06:28.787Z,2.40
2018-06-19T15:08:57.572Z,3.50
2018-06-19T15:11:26.307Z,3.60
2018-06-19T15:13:55.499Z,3.10
2018-06-19T15:16:24.275Z,5.13
2018-06-19T15:18:53.199Z,4.03
2018-06-19T15:21:21.935Z,3.93
2018-06-19T15:23:50.675Z,4.57
2018-06-19T15:26:19.460Z,2.80
2018-06-19T15:28:48.443Z,4.20
2018-06-19T15:31:17.299Z,3.43
2018-06-19T15:33:46.065Z,5.13
2018-06-19T15:36:14.852Z,5.90
2018-06-19T15:38:43.604Z,3.87
2018-06-19T15:41:12.419Z,2.40
2018-06-19T15:43:41.240Z,4.73
2018-06-19T15:46:10.025Z,4.03
2018-06-19T15:48:38.852Z,6.17
2018-06-19T15:51:07.471Z,4.20
2018-06-19T15:53:36.211Z,3.43
2018-06-19T15:56:05.140Z,4.90
2018-06-19T15:58:34.327Z,3.07
2018-06-19T16:01:03.133Z,2.93
2018-06-19T16:03:31.875Z,3.40
2018-06-19T16:06:00.643Z,3.67
2018-06-19T16:08:29.455Z,2.83
2018-06-19T16:10:58.235Z,2.90
2018-06-19T16:13:26.974Z,2.53
2018-06-19T16:15:55.772Z,3.00
2018-06-19T16:18:24.855Z,2.30
2018-06-19T16:20:53.720Z,2.97
2018-06-19T16:23:22.454Z,4.07
2018-06-19T16:25:51.194Z,5.57
2018-06-19T16:28:19.977Z,3.23
2018-06-19T16:30:48.711Z,4.70
2018-06-19T16:33:17.397Z,4.67
2018-06-19T16:35:46.230Z,2.80
2018-06-19T16:38:15.064Z,2.57
2018-06-19T16:40:43.952Z,4.83
2018-06-19T16:43:12.882Z,6.27
2018-06-19T16:45:47.556Z,3.10
2018-06-19T16:48:16.344Z,3.77
2018-06-19T16:50:45.084Z,3.80
2018-06-19T16:53:13.864Z,3.17
2018-06-19T16:55:45.629Z,2.80
2018-06-19T16:58:14.399Z,6.83
2018-06-19T17:00:43.151Z,3.67
2018-06-19T17:03:11.944Z,3.60
2018-06-19T17:05:40.680Z,4.00
2018-06-19T17:08:09.383Z,4.77
2018-06-19T17:10:38.131Z,2.67
2018-06-19T17:13:07.263Z,2.93
2018-06-19T17:15:35.995Z,3.77
2018-06-19T17:18:04.804Z,4.33
2018-06-19T17:20:33.638Z,7.23
2018-06-19T17:23:02.428Z,7.27
2018-06-19T17:25:31.168Z,13.27
2018-06-19T17:27:59.781Z,7.40
2018-06-19T17:30:28.871Z,7.07
2018-06-19T17:32:57.714Z,6.70
2018-06-19T17:35:26.456Z,4.93
2018-06-19T17:37:55.192Z,8.93
2018-06-19T17:40:24.223Z,6.93
2018-06-19T17:42:52.781Z,6.17
2018-06-19T17:45:27.590Z,6.00
2018-06-19T17:47:56.318Z,8.97
2018-06-19T17:50:25.095Z,7.43
2018-06-19T17:52:53.818Z,9.43
2018-06-19T17:55:22.654Z,7.17
2018-06-19T17:57:51.395Z,6.00
2018-06-19T18:00:20.234Z,9.70
2018-06-19T18:02:48.976Z,6.23
2018-06-19T18:05:17.767Z,7.23
2018-06-19T18:07:46.572Z,5.70
2018-06-19T18:10:15.351Z,5.50
2018-06-19T18:12:44.154Z,6.27
2018-06-19T18:15:12.951Z,6.33
2018-06-19T18:17:41.702Z,6.10
2018-06-19T18:20:10.554Z,7.63
2018-06-19T18:22:39.319Z,7.50
2018-06-19T18:25:08.128Z,6.37
2018-06-19T18:27:37.129Z,4.63
2018-06-19T18:30:05.888Z,10.03
2018-06-19T18:32:35.093Z,5.23
2018-06-19T18:35:04.163Z,7.47
2018-06-19T18:37:32.979Z,4.17
2018-06-19T18:40:02.757Z,4.37
2018-06-19T18:42:31.383Z,3.33
2018-06-19T18:45:00.017Z,5.53
2018-06-19T18:47:28.670Z,5.40
2018-06-19T18:49:57.415Z,7.20
2018-06-19T18:52:26.254Z,7.10
2018-06-19T18:54:55.029Z,8.87
2018-06-19T18:57:23.734Z,10.57
2018-06-19T18:59:52.480Z,7.13
2018-06-19T19:02:21.272Z,3.40
2018-06-19T19:04:50.012Z,5.10
2018-06-19T19:07:18.824Z,3.63
2018-06-19T19:09:53.055Z,5.03
2018-06-19T19:12:21.857Z,5.90
2018-06-19T19:15:54.085Z,4.47
2018-06-19T19:18:28.577Z,5.50
2018-06-19T19:20:58.448Z,5.97
2018-06-19T19:23:27.856Z,4.83
2018-06-19T19:25:56.681Z,9.30
2018-06-19T19:28:31.218Z,5.47
2018-06-19T19:31:00.076Z,6.83
2018-06-19T19:33:28.940Z,5.57
2018-06-19T19:35:57.533Z,3.10
2018-06-19T19:38:31.650Z,3.97
2018-06-19T19:41:00.740Z,7.43
2018-06-19T19:43:29.953Z,5.93
2018-06-19T19:45:58.720Z,4.33
2018-06-19T19:48:33.033Z,4.63
2018-06-19T19:51:01.859Z,4.67
2018-06-19T19:53:30.707Z,7.03
2018-06-19T19:56:05.545Z,4.90
2018-06-19T19:58:39.879Z,6.43
2018-06-19T20:01:08.650Z,4.30
2018-06-19T20:03:37.514Z,4.83
2018-06-19T20:06:06.285Z,7.07
2018-06-19T20:08:35.067Z,3.90
2018-06-19T20:11:03.877Z,4.20
2018-06-19T20:13:32.724Z,3.87
2018-06-19T20:16:01.535Z,3.63
2018-06-19T20:18:30.322Z,4.07
2018-06-19T20:20:59.067Z,4.67
2018-06-19T20:23:27.871Z,5.37
2018-06-19T20:25:56.868Z,6.07
2018-06-19T20:28:26.119Z,4.10
2018-06-19T20:30:54.935Z,6.87
2018-06-19T20:33:23.779Z,4.57
2018-06-19T20:35:52.603Z,5.37
2018-06-19T20:38:21.354Z,6.53
2018-06-19T20:40:50.265Z,5.63
2018-06-19T20:43:19.034Z,9.97
2018-06-19T20:45:53.935Z,5.27
2018-06-19T20:48:22.676Z,5.47
2018-06-19T20:50:51.551Z,7.43
2018-06-19T20:53:20.319Z,5.67
2018-06-19T20:55:49.100Z,6.03
2018-06-19T20:58:17.848Z,7.80
2018-06-19T21:00:46.668Z,6.53
2018-06-19T21:03:15.621Z,9.00
2018-06-19T21:05:44.907Z,11.07
2018-06-19T21:08:13.793Z,4.50
2018-06-19T21:10:42.508Z,7.90
2018-06-19T21:13:11.636Z,10.17
2018-06-19T21:15:40.596Z,13.53
2018-06-19T21:18:09.505Z,6.87
2018-06-19T21:20:38.672Z,6.20
2018-06-19T21:23:07.565Z,7.77
2018-06-19T21:25:36.476Z,9.87
2018-06-19T21:28:05.794Z,11.47
2018-06-19T21:30:34.684Z,5.33
2018-06-19T21:33:03.591Z,11.60
2018-06-19T21:35:32.683Z,7.07
2018-06-19T21:38:01.870Z,16.30
2018-06-19T21:40:30.891Z,11.03
2018-06-19T21:43:00.068Z,8.87
2018-06-19T21:45:34.967Z,5.13
2018-06-19T21:48:03.892Z,7.57
2018-06-19T21:50:32.661Z,6.37
2018-06-19T21:53:01.552Z,6.37
2018-06-19T21:55:30.787Z,9.67
2018-06-19T21:57:59.661Z,9.13
2018-06-19T22:00:28.550Z,10.10
2018-06-19T22:02:57.970Z,9.83
2018-06-19T22:05:26.860Z,7.13
2018-06-19T22:07:55.756Z,8.03
2018-06-19T22:10:24.954Z,9.97
2018-06-19T22:12:53.847Z,6.73
2018-06-19T22:15:22.808Z,7.40
2018-06-19T22:17:51.927Z,7.43
2018-06-19T22:20:20.807Z,5.43
2018-06-19T22:22:49.703Z,9.07
2018-06-19T22:25:18.817Z,9.20
2018-06-19T22:27:47.920Z,9.27
2018-06-19T22:30:16.972Z,9.90
2018-06-19T22:32:46.216Z,10.43
2018-06-19T22:35:15.105Z,8.70
2018-06-19T22:37:43.980Z,8.80
2018-06-19T22:40:13.296Z,6.27
2018-06-19T22:42:42.271Z,6.67
2018-06-19T22:45:11.144Z,7.17
2018-06-19T22:47:40.332Z,8.47
2018-06-19T22:50:09.227Z,5.00
2018-06-19T22:52:38.154Z,9.83
2018-06-19T22:55:07.359Z,9.43
2018-06-19T22:57:36.249Z,7.37
2018-06-19T23:00:05.360Z,7.23
2018-06-19T23:02:34.561Z,8.20
2018-06-19T23:05:03.504Z,9.07
2018-06-19T23:07:32.496Z,8.27
2018-06-19T23:10:01.705Z,8.87
2018-06-19T23:12:30.585Z,10.70
2018-06-19T23:14:59.271Z,8.27
2018-06-19T23:17:28.533Z,8.83
2018-06-19T23:19:57.444Z,9.03
2018-06-19T23:22:26.315Z,10.23
2018-06-19T23:24:55.496Z,10.30
2018-06-19T23:27:24.735Z,8.07
2018-06-19T23:29:53.677Z,7.13
2018-06-19T23:32:22.804Z,8.83
2018-06-19T23:34:51.691Z,8.20
2018-06-19T23:37:20.581Z,9.20
2018-06-19T23:39:49.784Z,10.60
2018-06-19T23:42:18.855Z,11.40
2018-06-19T23:44:47.796Z,10.80
2018-06-19T23:47:17.078Z,11.03
2018-06-19T23:49:45.962Z,9.53
2018-06-19T23:52:14.850Z,8.07
2018-06-19T23:54:43.636Z,6.87
2018-06-19T23:57:12.513Z,9.93
2018-06-19T23:59:41.409Z,6.67
